createdAt,value
2023-03-06T00:00:20.703Z,72.97
2023-03-06T00:02:47.719Z,64.07
2023-03-06T00:05:15.662Z,59.95
2023-03-06T00:07:42.751Z,64.88
2023-03-06T00:10:14.643Z,62.60
2023-03-06T00:12:41.802Z,63.67
2023-03-06T00:15:09.005Z,57.35
2023-03-06T00:17:36.406Z,60.45
2023-03-06T00:20:05.000Z,64.55
2023-03-06T00:22:32.118Z,60.78
2023-03-06T00:24:58.929Z,64.18
2023-03-06T00:27:26.480Z,59.80
2023-03-06T00:29:57.778Z,63.42
2023-03-06T00:32:25.544Z,59.17
2023-03-06T00:34:53.268Z,58.63
2023-03-06T00:37:21.258Z,61.70
2023-03-06T00:39:49.591Z,65.07
2023-03-06T00:42:17.598Z,61.30
2023-03-06T00:44:44.984Z,61.63
2023-03-06T00:47:12.618Z,62.08
2023-03-06T00:49:39.762Z,60.25
2023-03-06T00:52:06.526Z,57.92
2023-03-06T00:54:33.256Z,64.55
2023-03-06T00:57:00.118Z,56.35
2023-03-06T00:59:27.834Z,58.03
2023-03-06T01:01:54.881Z,59.47
2023-03-06T01:04:22.030Z,60.55
2023-03-06T01:06:49.066Z,58.80
2023-03-06T01:09:16.201Z,64.10
2023-03-06T01:11:42.946Z,63.78
2023-03-06T01:14:09.681Z,58.53
2023-03-06T01:16:36.704Z,62.55
2023-03-06T01:19:03.797Z,64.85
2023-03-06T01:21:30.630Z,59.20
2023-03-06T01:23:57.581Z,61.15
2023-03-06T01:26:24.390Z,59.42
2023-03-06T01:28:51.123Z,61.47
2023-03-06T01:31:17.921Z,61.03
2023-03-06T01:33:45.170Z,66.28
2023-03-06T01:36:13.248Z,58.35
2023-03-06T01:38:40.156Z,60.40
2023-03-06T01:41:07.565Z,57.72
2023-03-06T01:43:37.882Z,56.50
2023-03-06T01:46:29.606Z,57.60
2023-03-06T01:49:11.091Z,56.57
2023-03-06T01:51:55.122Z,61.28
2023-03-06T01:54:29.587Z,57.60
2023-03-06T01:57:03.166Z,58.03
2023-03-06T01:59:30.938Z,59.22
2023-03-06T02:02:01.612Z,56.38
2023-03-06T02:04:29.625Z,66.28
2023-03-06T02:07:04.803Z,57.85
2023-03-06T02:09:33.693Z,62.97
2023-03-06T02:12:08.755Z,59.65
2023-03-06T02:14:35.981Z,58.42
2023-03-06T02:17:03.578Z,69.10
2023-03-06T02:20:04.568Z,66.25
2023-03-06T02:22:54.675Z,55.08
2023-03-06T02:25:33.828Z,65.78
2023-03-06T02:28:01.046Z,58.25
2023-03-06T02:30:29.261Z,59.65
2023-03-06T02:32:57.079Z,62.33
2023-03-06T02:35:30.511Z,63.30
2023-03-06T02:38:00.238Z,65.03
2023-03-06T02:40:27.204Z,60.35
2023-03-06T02:42:57.050Z,58.33
2023-03-06T02:45:36.799Z,62.90
2023-03-06T02:48:04.165Z,62.42
2023-03-06T02:50:31.680Z,55.33
2023-03-06T02:52:59.047Z,56.65
2023-03-06T02:55:26.166Z,59.67
2023-03-06T02:57:52.964Z,64.00
2023-03-06T03:00:20.250Z,59.28
2023-03-06T03:02:46.980Z,62.45
2023-03-06T03:05:14.204Z,58.95
2023-03-06T03:07:41.127Z,56.78
2023-03-06T03:10:08.814Z,55.78
2023-03-06T03:12:35.622Z,65.45
2023-03-06T03:15:02.512Z,56.67
2023-03-06T03:17:29.403Z,58.33
2023-03-06T03:19:56.210Z,51.05
2023-03-06T03:22:23.154Z,59.83
2023-03-06T03:24:49.938Z,53.55
2023-03-06T03:27:16.773Z,61.25
2023-03-06T03:29:43.556Z,60.55
2023-03-06T03:32:10.828Z,58.97
2023-03-06T03:34:37.629Z,55.72
2023-03-06T03:37:04.507Z,66.13
2023-03-06T03:39:31.393Z,55.55
2023-03-06T03:41:58.331Z,57.00
2023-03-06T03:44:25.258Z,60.92
2023-03-06T03:46:51.974Z,59.83
2023-03-06T03:49:18.837Z,53.28
2023-03-06T03:51:45.704Z,57.33
2023-03-06T03:54:12.450Z,51.67
2023-03-06T03:56:40.891Z,55.97
2023-03-06T03:59:08.509Z,53.58
2023-03-06T04:01:36.432Z,52.38
2023-03-06T04:04:04.082Z,54.45
2023-03-06T04:06:46.320Z,59.95
2023-03-06T04:09:13.304Z,60.30
2023-03-06T04:11:40.386Z,50.47
2023-03-06T04:14:08.334Z,56.55
2023-03-06T04:16:35.177Z,51.10
2023-03-06T04:19:01.938Z,57.47
2023-03-06T04:21:28.814Z,53.88
2023-03-06T04:23:55.549Z,53.08
2023-03-06T04:26:22.350Z,54.45
2023-03-06T04:28:49.263Z,54.80
2023-03-06T04:31:16.089Z,53.13
2023-03-06T04:33:42.926Z,54.58
2023-03-06T04:36:35.456Z,54.10
2023-03-06T04:39:02.940Z,48.92
2023-03-06T04:41:30.707Z,55.55
2023-03-06T04:43:57.772Z,49.40
2023-03-06T04:46:25.052Z,51.03
2023-03-06T04:48:51.977Z,57.60
2023-03-06T04:51:18.797Z,58.50
2023-03-06T04:53:45.758Z,58.20
2023-03-06T04:56:12.685Z,55.53
2023-03-06T04:58:39.467Z,51.58
2023-03-06T05:01:06.461Z,51.67
2023-03-06T05:03:33.311Z,57.53
2023-03-06T05:06:00.183Z,51.08
2023-03-06T05:08:27.039Z,46.08
2023-03-06T05:10:56.742Z,51.92
2023-03-06T05:13:23.822Z,54.03
2023-03-06T05:15:51.161Z,50.45
2023-03-06T05:18:18.815Z,53.72
2023-03-06T05:20:45.934Z,55.53
2023-03-06T05:23:13.154Z,44.53
2023-03-06T05:25:40.632Z,49.17
2023-03-06T05:28:08.115Z,50.80
2023-03-06T05:30:35.082Z,55.42
2023-03-06T05:33:02.071Z,52.70
2023-03-06T05:35:28.926Z,52.00
2023-03-06T05:37:56.059Z,54.58
2023-03-06T05:40:22.992Z,52.55
2023-03-06T05:42:49.798Z,54.03
2023-03-06T05:45:16.671Z,48.85
2023-03-06T05:47:43.623Z,53.13
2023-03-06T05:50:11.218Z,49.35
2023-03-06T05:52:39.852Z,53.55
2023-03-06T05:55:09.930Z,48.58
2023-03-06T05:57:36.726Z,51.05
2023-03-06T06:00:04.066Z,48.13
2023-03-06T06:02:30.942Z,53.55
2023-03-06T06:04:57.748Z,48.97
2023-03-06T06:07:24.492Z,53.80
2023-03-06T06:09:53.549Z,53.92
2023-03-06T06:12:20.540Z,58.72
2023-03-06T06:14:47.298Z,53.03
2023-03-06T06:17:14.089Z,51.45
2023-03-06T06:19:40.859Z,57.55
2023-03-06T06:22:08.445Z,51.40
2023-03-06T06:24:35.273Z,55.75
2023-03-06T06:27:03.971Z,62.40
2023-03-06T06:29:32.034Z,65.25
2023-03-06T06:31:59.789Z,64.22
2023-03-06T06:34:27.382Z,61.75
2023-03-06T06:36:54.775Z,59.90
2023-03-06T06:39:23.086Z,52.83
2023-03-06T06:42:02.623Z,52.22
2023-03-06T06:44:37.264Z,55.40
2023-03-06T06:47:23.597Z,54.58
2023-03-06T06:49:55.798Z,67.13
2023-03-06T06:52:23.763Z,58.22
2023-03-06T06:54:51.140Z,55.35
2023-03-06T06:57:18.383Z,47.70
2023-03-06T06:59:45.245Z,52.85
2023-03-06T07:02:13.992Z,55.42
2023-03-06T07:04:52.738Z,51.10
2023-03-06T07:07:27.485Z,51.17
2023-03-06T07:09:55.725Z,49.45
2023-03-06T07:12:22.701Z,47.13
2023-03-06T07:14:49.439Z,38.38
2023-03-06T07:17:16.302Z,44.70
2023-03-06T07:19:43.100Z,51.83
2023-03-06T07:22:10.101Z,45.67
2023-03-06T07:24:36.919Z,47.05
2023-03-06T07:27:03.908Z,48.30
2023-03-06T07:29:32.930Z,50.90
2023-03-06T07:31:59.950Z,44.60
2023-03-06T07:34:26.849Z,59.58
2023-03-06T07:36:53.593Z,60.28
2023-03-06T07:39:20.348Z,64.63
2023-03-06T07:41:47.310Z,63.33
2023-03-06T07:44:14.113Z,62.47
2023-03-06T07:46:41.133Z,62.75
2023-03-06T07:49:08.082Z,60.22
2023-03-06T07:51:34.865Z,61.83
2023-03-06T07:54:01.641Z,66.30
2023-03-06T07:56:28.423Z,71.55
2023-03-06T07:58:56.144Z,69.55
2023-03-06T08:01:24.436Z,70.10
2023-03-06T08:03:51.994Z,96.18
2023-03-06T08:06:22.735Z,65.93
2023-03-06T08:08:50.741Z,66.38
2023-03-06T08:11:20.191Z,58.00
2023-03-06T08:13:48.816Z,64.22
2023-03-06T08:16:17.589Z,65.75
2023-03-06T08:18:46.229Z,58.40
2023-03-06T08:21:16.590Z,64.45
2023-03-06T08:23:44.213Z,61.63
2023-03-06T08:26:13.751Z,64.82
2023-03-06T08:28:41.131Z,69.07
2023-03-06T08:31:24.583Z,79.60
2023-03-06T08:33:51.633Z,58.05
2023-03-06T08:36:18.484Z,60.22
2023-03-06T08:38:45.479Z,61.70
2023-03-06T08:41:12.369Z,59.97
2023-03-06T08:43:39.216Z,57.25
2023-03-06T08:46:06.334Z,60.72
2023-03-06T08:48:33.207Z,65.07
2023-03-06T08:50:59.997Z,60.33
2023-03-06T08:53:41.668Z,61.53
2023-03-06T08:56:16.520Z,59.03
2023-03-06T08:58:43.330Z,58.65
2023-03-06T09:01:18.752Z,62.15
2023-03-06T09:03:45.809Z,59.33
2023-03-06T09:06:12.716Z,59.92
2023-03-06T09:08:43.052Z,66.35
2023-03-06T09:11:14.423Z,54.97
2023-03-06T09:13:42.483Z,61.03
2023-03-06T09:16:10.644Z,59.78
2023-03-06T09:18:37.662Z,61.45
2023-03-06T09:21:05.783Z,63.38
2023-03-06T09:23:33.264Z,64.25
2023-03-06T09:26:00.888Z,62.45
2023-03-06T09:28:27.781Z,63.88
2023-03-06T09:30:54.736Z,69.88
2023-03-06T09:33:21.817Z,106.78
2023-03-06T09:35:52.070Z,61.60
2023-03-06T09:38:20.663Z,59.72
2023-03-06T09:41:03.130Z,57.00
2023-03-06T09:43:43.162Z,61.83
2023-03-06T09:46:50.143Z,57.90
2023-03-06T09:49:38.960Z,62.05
2023-03-06T09:52:43.564Z,68.05
2023-03-06T09:55:22.648Z,62.80
2023-03-06T09:58:04.996Z,64.93
2023-03-06T10:00:53.836Z,63.47
2023-03-06T10:03:23.644Z,67.20
2023-03-06T10:05:57.142Z,67.68
2023-03-06T10:08:26.919Z,70.07
2023-03-06T10:11:03.857Z,57.78
2023-03-06T10:13:39.455Z,60.95
2023-03-06T10:16:30.558Z,69.65
2023-03-06T10:19:03.794Z,58.42
2023-03-06T10:21:33.633Z,62.72
2023-03-06T10:24:25.330Z,59.78
2023-03-06T10:27:25.285Z,65.68
2023-03-06T10:30:16.432Z,60.72
2023-03-06T10:33:06.141Z,67.53
2023-03-06T10:35:46.475Z,60.92
2023-03-06T10:38:25.549Z,61.25
2023-03-06T10:41:11.740Z,60.95
2023-03-06T10:43:41.042Z,63.42
2023-03-06T10:46:10.247Z,62.45
2023-03-06T10:48:40.914Z,60.35
2023-03-06T10:51:19.065Z,56.67
2023-03-06T10:54:09.170Z,58.58
2023-03-06T10:56:44.012Z,61.88
2023-03-06T10:59:25.682Z,62.85
2023-03-06T11:01:58.279Z,61.90
2023-03-06T11:04:35.249Z,57.00
2023-03-06T11:07:18.944Z,62.75
2023-03-06T11:09:58.528Z,56.90
2023-03-06T11:12:28.500Z,59.22
2023-03-06T11:15:21.339Z,56.85
2023-03-06T11:18:04.552Z,57.22
2023-03-06T11:20:51.444Z,65.80
2023-03-06T11:23:39.604Z,53.40
2023-03-06T11:26:20.088Z,56.80
2023-03-06T11:29:15.550Z,51.03
2023-03-06T11:31:54.449Z,50.75
2023-03-06T11:34:55.433Z,54.38
2023-03-06T11:37:44.079Z,54.75
2023-03-06T11:40:10.866Z,54.20
2023-03-06T11:42:59.917Z,53.30
2023-03-06T11:45:37.290Z,55.33
2023-03-06T11:48:20.250Z,54.08
2023-03-06T11:50:53.025Z,56.40
2023-03-06T11:53:40.064Z,55.95
2023-03-06T11:56:20.209Z,56.88
2023-03-06T11:59:02.085Z,53.50
2023-03-06T12:01:50.101Z,50.08
2023-03-06T12:04:41.096Z,52.58
2023-03-06T12:07:34.741Z,46.72
2023-03-06T12:10:20.986Z,53.67
2023-03-06T12:12:53.763Z,54.80
2023-03-06T12:15:50.674Z,49.42
2023-03-06T12:18:36.008Z,56.58
2023-03-06T12:21:27.057Z,50.42
2023-03-06T12:24:08.384Z,51.30
2023-03-06T12:26:57.170Z,53.47
2023-03-06T12:29:39.185Z,47.95
2023-03-06T12:32:30.696Z,48.90
2023-03-06T12:35:32.785Z,51.47
2023-03-06T12:38:21.598Z,56.53
2023-03-06T12:40:54.510Z,53.33
2023-03-06T12:43:42.294Z,45.10
2023-03-06T12:46:22.101Z,56.13
2023-03-06T12:49:03.854Z,50.40
2023-03-06T12:51:32.135Z,53.90
2023-03-06T12:54:02.037Z,45.30
2023-03-06T12:56:31.095Z,47.22
2023-03-06T12:59:02.567Z,43.25
2023-03-06T13:02:18.046Z,48.35
2023-03-06T13:05:07.466Z,45.53
2023-03-06T13:07:55.706Z,47.63
2023-03-06T13:10:28.177Z,51.05
2023-03-06T13:12:56.496Z,51.63
2023-03-06T13:15:40.379Z,46.58
2023-03-06T13:18:22.144Z,46.58
2023-03-06T13:20:51.050Z,49.35
2023-03-06T13:23:29.920Z,46.92
2023-03-06T13:25:58.328Z,51.47
2023-03-06T13:28:26.952Z,51.20
2023-03-06T13:30:54.050Z,43.72
2023-03-06T13:33:37.169Z,43.65
2023-03-06T13:36:24.668Z,44.95
2023-03-06T13:38:51.789Z,46.10
2023-03-06T13:41:27.776Z,47.17
2023-03-06T13:44:00.044Z,47.80
2023-03-06T13:46:28.973Z,40.33
2023-03-06T13:49:07.773Z,40.97
2023-03-06T13:51:43.595Z,45.33
2023-03-06T13:54:10.489Z,49.47
2023-03-06T13:56:50.163Z,43.97
2023-03-06T13:59:35.118Z,47.88
2023-03-06T14:02:53.381Z,38.88
2023-03-06T14:05:21.004Z,41.70
2023-03-06T14:08:16.405Z,37.10
2023-03-06T14:10:45.405Z,39.67
2023-03-06T14:13:24.285Z,38.20
2023-03-06T14:15:54.013Z,37.45
2023-03-06T14:18:31.314Z,38.40
2023-03-06T14:21:01.648Z,38.00
2023-03-06T14:23:38.280Z,34.03
2023-03-06T14:26:25.284Z,36.97
2023-03-06T14:29:00.417Z,31.60
2023-03-06T14:31:36.970Z,37.97
2023-03-06T14:34:06.915Z,35.63
2023-03-06T14:36:36.668Z,34.70
2023-03-06T14:39:10.986Z,28.63
2023-03-06T14:41:38.280Z,30.65
2023-03-06T14:44:19.598Z,27.63
2023-03-06T14:46:51.498Z,32.00
2023-03-06T14:49:20.892Z,28.38
2023-03-06T14:51:50.844Z,29.52
2023-03-06T14:54:21.070Z,29.02
2023-03-06T14:56:51.364Z,29.30
2023-03-06T14:59:25.774Z,37.85
2023-03-06T15:01:59.496Z,31.88
2023-03-06T15:04:36.840Z,28.80
2023-03-06T15:07:08.946Z,32.08
2023-03-06T15:09:37.421Z,36.08
2023-03-06T15:12:30.714Z,32.88
2023-03-06T15:14:59.728Z,36.20
2023-03-06T15:17:46.920Z,40.30
2023-03-06T15:20:44.084Z,31.17
2023-03-06T15:23:17.916Z,28.75
2023-03-06T15:25:56.883Z,31.55
2023-03-06T15:28:38.662Z,32.33
2023-03-06T15:31:18.563Z,33.30
2023-03-06T15:33:59.859Z,35.65
2023-03-06T15:36:32.488Z,35.77
2023-03-06T15:39:00.839Z,35.13
2023-03-06T15:41:34.686Z,31.92
2023-03-06T15:44:08.526Z,38.80
2023-03-06T15:46:35.359Z,34.55
2023-03-06T15:49:03.701Z,29.25
2023-03-06T15:51:31.878Z,35.70
2023-03-06T15:54:11.139Z,30.48
2023-03-06T15:56:41.713Z,33.83
2023-03-06T15:59:14.886Z,31.25
2023-03-06T16:01:43.354Z,31.15
2023-03-06T16:04:10.162Z,30.92
2023-03-06T16:06:37.754Z,33.70
2023-03-06T16:09:05.902Z,29.15
2023-03-06T16:11:43.427Z,28.98
2023-03-06T16:14:21.121Z,29.08
2023-03-06T16:16:48.509Z,32.13
2023-03-06T16:19:25.893Z,33.38
2023-03-06T16:21:54.931Z,31.85
2023-03-06T16:24:22.055Z,28.60
2023-03-06T16:26:53.536Z,28.20
2023-03-06T16:29:22.757Z,33.00
2023-03-06T16:31:49.695Z,27.40
2023-03-06T16:34:17.080Z,33.38
2023-03-06T16:36:43.871Z,31.25
2023-03-06T16:39:18.619Z,32.63
2023-03-06T16:41:49.469Z,29.38
2023-03-06T16:44:16.665Z,29.33
2023-03-06T16:46:47.062Z,41.08
2023-03-06T16:49:17.534Z,35.92
2023-03-06T16:51:45.194Z,33.30
2023-03-06T16:54:12.794Z,36.42
2023-03-06T16:56:39.658Z,36.88
2023-03-06T16:59:06.589Z,36.20
2023-03-06T17:01:33.453Z,41.88
2023-03-06T17:04:00.273Z,38.60
2023-03-06T17:06:27.079Z,43.45
2023-03-06T17:08:53.927Z,38.90
2023-03-06T17:11:20.711Z,37.17
2023-03-06T17:13:48.626Z,33.65
2023-03-06T17:16:16.518Z,53.10
2023-03-06T17:18:45.345Z,298.50
2023-03-06T17:21:12.937Z,507.23
2023-03-06T17:23:39.768Z,79.93
2023-03-06T17:26:19.186Z,44.15
2023-03-06T17:28:46.632Z,37.20
2023-03-06T17:31:21.944Z,260.20
2023-03-06T17:33:49.659Z,295.40
2023-03-06T17:36:17.444Z,1553.22
2023-03-06T17:38:44.242Z,1213.97
2023-03-06T17:41:12.337Z,345.85
2023-03-06T17:43:40.110Z,92.07
2023-03-06T17:46:12.057Z,44.45
2023-03-06T17:48:40.056Z,44.05
2023-03-06T17:51:07.542Z,44.75
2023-03-06T17:53:34.476Z,45.00
2023-03-06T17:56:03.929Z,40.38
2023-03-06T17:58:31.255Z,42.47
2023-03-06T18:00:58.604Z,44.40
2023-03-06T18:03:25.415Z,34.63
2023-03-06T18:06:03.721Z,41.22
2023-03-06T18:08:32.228Z,34.00
2023-03-06T18:11:04.233Z,38.03
2023-03-06T18:13:35.219Z,41.50
2023-03-06T18:16:02.550Z,44.72
2023-03-06T18:18:30.266Z,40.58
2023-03-06T18:20:57.104Z,39.00
2023-03-06T18:23:24.321Z,39.10
2023-03-06T18:25:51.306Z,39.45
2023-03-06T18:28:18.183Z,40.22
2023-03-06T18:30:45.050Z,44.65
2023-03-06T18:33:11.870Z,43.20
2023-03-06T18:35:38.674Z,46.10
2023-03-06T18:38:05.526Z,45.75
2023-03-06T18:40:32.336Z,48.40
2023-03-06T18:42:59.172Z,41.30
2023-03-06T18:45:26.150Z,45.40
2023-03-06T18:47:52.947Z,40.55
2023-03-06T18:50:19.880Z,41.47
2023-03-06T18:52:46.971Z,43.55
2023-03-06T18:55:18.170Z,42.58
2023-03-06T18:57:44.992Z,47.08
2023-03-06T19:00:12.390Z,47.17
2023-03-06T19:02:39.144Z,38.90
2023-03-06T19:05:06.402Z,47.60
2023-03-06T19:07:33.289Z,51.75
2023-03-06T19:10:00.080Z,52.70
2023-03-06T19:12:27.006Z,52.97
2023-03-06T19:14:53.832Z,51.22
2023-03-06T19:17:20.598Z,48.40
2023-03-06T19:19:49.811Z,49.08
2023-03-06T19:22:16.577Z,47.95
2023-03-06T19:24:43.365Z,54.10
2023-03-06T19:27:11.478Z,49.97
2023-03-06T19:29:38.600Z,42.25
2023-03-06T19:32:05.746Z,45.97
2023-03-06T19:34:32.600Z,49.80
2023-03-06T19:36:59.377Z,47.30
2023-03-06T19:39:26.226Z,41.63
2023-03-06T19:41:53.136Z,51.78
2023-03-06T19:44:19.985Z,43.00
2023-03-06T19:46:46.785Z,45.80
2023-03-06T19:49:16.873Z,45.60
2023-03-06T19:51:44.355Z,51.65
2023-03-06T19:54:12.295Z,49.05
2023-03-06T19:56:39.156Z,50.30
2023-03-06T19:59:05.932Z,44.72
2023-03-06T20:01:34.380Z,41.65
2023-03-06T20:04:01.310Z,46.10
2023-03-06T20:06:31.117Z,45.13
2023-03-06T20:09:01.120Z,50.33
2023-03-06T20:11:31.908Z,49.58
2023-03-06T20:14:00.605Z,49.20
2023-03-06T20:16:28.953Z,51.20
2023-03-06T20:18:58.757Z,45.28
2023-03-06T20:21:26.695Z,48.22
2023-03-06T20:23:54.889Z,41.72
2023-03-06T20:26:21.766Z,42.28
2023-03-06T20:28:48.892Z,44.67
2023-03-06T20:31:21.876Z,41.60
2023-03-06T20:33:50.956Z,44.67
2023-03-06T20:36:19.165Z,46.00
2023-03-06T20:38:47.027Z,48.85
2023-03-06T20:41:19.026Z,44.63
2023-03-06T20:43:45.927Z,45.80
2023-03-06T20:46:13.990Z,49.90
2023-03-06T20:48:42.491Z,49.03
2023-03-06T20:51:22.223Z,47.00
2023-03-06T20:53:50.742Z,49.40
2023-03-06T20:56:19.791Z,54.05
2023-03-06T20:58:46.992Z,49.45
2023-03-06T21:01:22.711Z,47.55
2023-03-06T21:03:50.263Z,50.85
2023-03-06T21:06:18.105Z,62.90
2023-03-06T21:08:44.960Z,59.90
2023-03-06T21:11:11.822Z,49.10
2023-03-06T21:13:39.227Z,49.85
2023-03-06T21:16:07.707Z,44.55
2023-03-06T21:18:34.518Z,49.33
2023-03-06T21:21:06.243Z,49.85
2023-03-06T21:23:33.041Z,50.60
2023-03-06T21:25:59.909Z,53.55
2023-03-06T21:28:27.010Z,48.38
2023-03-06T21:30:54.006Z,53.53
2023-03-06T21:33:21.033Z,50.75
2023-03-06T21:35:48.203Z,58.15
2023-03-06T21:38:15.501Z,50.90
2023-03-06T21:40:42.861Z,55.05
2023-03-06T21:43:10.043Z,50.22
2023-03-06T21:45:36.880Z,52.92
2023-03-06T21:48:04.269Z,60.03
2023-03-06T21:50:31.023Z,48.15
2023-03-06T21:52:58.331Z,52.28
2023-03-06T21:55:25.493Z,48.28
2023-03-06T21:57:53.823Z,54.50
2023-03-06T22:00:23.176Z,48.10
2023-03-06T22:02:50.675Z,50.05
2023-03-06T22:05:17.476Z,52.72
2023-03-06T22:07:44.385Z,47.38
2023-03-06T22:10:12.438Z,47.95
2023-03-06T22:12:39.986Z,51.60
2023-03-06T22:15:09.538Z,48.22
2023-03-06T22:17:36.473Z,50.88
2023-03-06T22:20:04.367Z,47.08
2023-03-06T22:22:31.680Z,47.65
2023-03-06T22:24:58.833Z,47.80
2023-03-06T22:27:25.677Z,55.25
2023-03-06T22:29:53.217Z,50.83
2023-03-06T22:32:20.496Z,49.03
2023-03-06T22:34:47.313Z,57.00
2023-03-06T22:37:14.092Z,46.13
2023-03-06T22:39:40.918Z,46.10
2023-03-06T22:42:07.740Z,47.88
2023-03-06T22:44:34.544Z,45.20
2023-03-06T22:47:01.369Z,47.67
2023-03-06T22:49:28.153Z,46.50
2023-03-06T22:51:54.898Z,50.15
2023-03-06T22:54:21.690Z,51.28
2023-03-06T22:56:48.516Z,52.60
2023-03-06T22:59:15.326Z,54.60
2023-03-06T23:01:43.279Z,51.95
2023-03-06T23:04:11.390Z,50.58
2023-03-06T23:06:41.060Z,51.50
2023-03-06T23:09:18.354Z,45.08
2023-03-06T23:11:45.139Z,58.40
2023-03-06T23:14:12.701Z,53.40
2023-03-06T23:16:39.972Z,50.35
2023-03-06T23:19:07.243Z,55.80
2023-03-06T23:21:34.634Z,49.95
2023-03-06T23:24:02.256Z,52.67
2023-03-06T23:26:31.502Z,54.00
2023-03-06T23:28:58.789Z,53.55
2023-03-06T23:31:29.020Z,50.92
2023-03-06T23:34:01.508Z,60.88
2023-03-06T23:36:28.883Z,51.72
2023-03-06T23:38:56.132Z,50.45
2023-03-06T23:41:23.751Z,55.83
2023-03-06T23:43:52.001Z,50.63
2023-03-06T23:46:20.423Z,54.08
2023-03-06T23:48:47.365Z,60.17
2023-03-06T23:51:21.605Z,59.90
2023-03-06T23:53:57.561Z,54.33
2023-03-06T23:56:25.889Z,52.70
2023-03-06T23:58:52.787Z,56.72
